sensor_id;sensor_type;location;lat;lon;timestamp;P1;durP1;ratioP1;P2;durP2;ratioP2
1366;SDS011;16877;48.810;9.282;2023-05-17T00:01:28;2.77;;;1.20;;
1366;SDS011;16877;48.810;9.282;2023-05-17T00:03:55;3.90;;;1.90;;
1366;SDS011;16877;48.810;9.282;2023-05-17T00:06:23;2.60;;;1.40;;
1366;SDS011;16877;48.810;9.282;2023-05-17T00:08:50;4.50;;;1.70;;
1366;SDS011;16877;48.810;9.282;2023-05-17T00:11:19;5.17;;;1.80;;
1366;SDS011;16877;48.810;9.282;2023-05-17T00:13:47;2.90;;;1.20;;
1366;SDS011;16877;48.810;9.282;2023-05-17T00:16:14;4.07;;;1.93;;
1366;SDS011;16877;48.810;9.282;2023-05-17T00:18:42;2.37;;;1.30;;
1366;SDS011;16877;48.810;9.282;2023-05-17T00:21:13;4.53;;;1.93;;
1366;SDS011;16877;48.810;9.282;2023-05-17T00:23:40;3.17;;;1.83;;
1366;SDS011;16877;48.810;9.282;2023-05-17T00:26:08;2.93;;;1.60;;
1366;SDS011;16877;48.810;9.282;2023-05-17T00:28:39;5.13;;;2.00;;
1366;SDS011;16877;48.810;9.282;2023-05-17T00:31:07;5.30;;;1.67;;
1366;SDS011;16877;48.810;9.282;2023-05-17T00:33:34;3.80;;;2.00;;
1366;SDS011;16877;48.810;9.282;2023-05-17T00:36:02;3.13;;;1.53;;
1366;SDS011;16877;48.810;9.282;2023-05-17T00:38:29;4.47;;;2.00;;
1366;SDS011;16877;48.810;9.282;2023-05-17T00:41:01;3.13;;;1.60;;
1366;SDS011;16877;48.810;9.282;2023-05-17T00:43:28;2.63;;;1.37;;
1366;SDS011;16877;48.810;9.282;2023-05-17T00:45:59;3.87;;;1.57;;
1366;SDS011;16877;48.810;9.282;2023-05-17T00:48:26;3.60;;;1.50;;
1366;SDS011;16877;48.810;9.282;2023-05-17T00:50:55;3.30;;;1.73;;
1366;SDS011;16877;48.810;9.282;2023-05-17T00:53:24;3.20;;;1.50;;
1366;SDS011;16877;48.810;9.282;2023-05-17T00:55:53;3.83;;;1.73;;
1366;SDS011;16877;48.810;9.282;2023-05-17T00:58:20;4.17;;;1.37;;
1366;SDS011;16877;48.810;9.282;2023-05-17T01:00:49;4.80;;;1.50;;
1366;SDS011;16877;48.810;9.282;2023-05-17T01:03:18;3.37;;;1.40;;
1366;SDS011;16877;48.810;9.282;2023-05-17T01:05:46;4.60;;;2.20;;
1366;SDS011;16877;48.810;9.282;2023-05-17T01:08:15;3.70;;;1.57;;
1366;SDS011;16877;48.810;9.282;2023-05-17T01:10:43;3.23;;;1.57;;
1366;SDS011;16877;48.810;9.282;2023-05-17T01:13:19;4.13;;;1.60;;
1366;SDS011;16877;48.810;9.282;2023-05-17T01:15:52;4.87;;;2.27;;
1366;SDS011;16877;48.810;9.282;2023-05-17T01:18:33;3.50;;;1.60;;
1366;SDS011;16877;48.810;9.282;2023-05-17T01:21:08;3.10;;;1.43;;
1366;SDS011;16877;48.810;9.282;2023-05-17T01:23:56;3.93;;;1.77;;
1366;SDS011;16877;48.810;9.282;2023-05-17T01:26:35;2.90;;;1.13;;
1366;SDS011;16877;48.810;9.282;2023-05-17T01:29:03;3.50;;;1.77;;
1366;SDS011;16877;48.810;9.282;2023-05-17T01:31:33;2.63;;;1.40;;
1366;SDS011;16877;48.810;9.282;2023-05-17T01:34:05;3.80;;;1.53;;
1366;SDS011;16877;48.810;9.282;2023-05-17T01:36:32;3.23;;;1.53;;
1366;SDS011;16877;48.810;9.282;2023-05-17T01:39:00;2.70;;;1.43;;
1366;SDS011;16877;48.810;9.282;2023-05-17T01:41:28;2.97;;;1.67;;
1366;SDS011;16877;48.810;9.282;2023-05-17T01:44:01;3.03;;;1.40;;
1366;SDS011;16877;48.810;9.282;2023-05-17T01:46:36;5.30;;;1.70;;
1366;SDS011;16877;48.810;9.282;2023-05-17T01:49:07;4.33;;;1.77;;
1366;SDS011;16877;48.810;9.282;2023-05-17T01:51:39;4.43;;;1.30;;
1366;SDS011;16877;48.810;9.282;2023-05-17T01:54:12;2.97;;;1.60;;
1366;SDS011;16877;48.810;9.282;2023-05-17T01:56:45;5.50;;;1.70;;
1366;SDS011;16877;48.810;9.282;2023-05-17T01:59:18;2.80;;;1.40;;
1366;SDS011;16877;48.810;9.282;2023-05-17T02:01:49;3.03;;;1.50;;
1366;SDS011;16877;48.810;9.282;2023-05-17T02:04:18;3.50;;;1.53;;
1366;SDS011;16877;48.810;9.282;2023-05-17T02:06:46;3.03;;;1.70;;
1366;SDS011;16877;48.810;9.282;2023-05-17T02:09:29;3.53;;;1.70;;
1366;SDS011;16877;48.810;9.282;2023-05-17T02:11:56;3.40;;;1.60;;
1366;SDS011;16877;48.810;9.282;2023-05-17T02:14:25;4.83;;;1.80;;
1366;SDS011;16877;48.810;9.282;2023-05-17T02:16:53;3.17;;;1.90;;
1366;SDS011;16877;48.810;9.282;2023-05-17T02:19:21;4.00;;;1.73;;
1366;SDS011;16877;48.810;9.282;2023-05-17T02:21:48;3.70;;;1.70;;
1366;SDS011;16877;48.810;9.282;2023-05-17T02:24:26;5.23;;;1.60;;
1366;SDS011;16877;48.810;9.282;2023-05-17T02:26:54;3.20;;;1.50;;
1366;SDS011;16877;48.810;9.282;2023-05-17T02:29:21;4.30;;;1.90;;
1366;SDS011;16877;48.810;9.282;2023-05-17T02:31:54;2.30;;;1.17;;
1366;SDS011;16877;48.810;9.282;2023-05-17T02:34:22;3.30;;;1.73;;
1366;SDS011;16877;48.810;9.282;2023-05-17T02:36:49;3.60;;;1.70;;
1366;SDS011;16877;48.810;9.282;2023-05-17T02:39:17;2.73;;;1.40;;
1366;SDS011;16877;48.810;9.282;2023-05-17T02:41:44;4.00;;;1.50;;
1366;SDS011;16877;48.810;9.282;2023-05-17T02:44:12;4.97;;;1.73;;
1366;SDS011;16877;48.810;9.282;2023-05-17T02:46:39;4.00;;;1.80;;
1366;SDS011;16877;48.810;9.282;2023-05-17T02:49:23;3.40;;;1.53;;
1366;SDS011;16877;48.810;9.282;2023-05-17T02:51:51;3.23;;;1.40;;
1366;SDS011;16877;48.810;9.282;2023-05-17T02:54:18;5.77;;;2.00;;
1366;SDS011;16877;48.810;9.282;2023-05-17T02:56:46;2.83;;;1.23;;
1366;SDS011;16877;48.810;9.282;2023-05-17T02:59:28;3.63;;;1.83;;
1366;SDS011;16877;48.810;9.282;2023-05-17T03:02:10;3.60;;;1.83;;
1366;SDS011;16877;48.810;9.282;2023-05-17T03:04:54;2.87;;;1.40;;
1366;SDS011;16877;48.810;9.282;2023-05-17T03:07:21;3.27;;;1.40;;
1366;SDS011;16877;48.810;9.282;2023-05-17T03:09:49;3.63;;;2.03;;
1366;SDS011;16877;48.810;9.282;2023-05-17T03:12:17;3.07;;;1.63;;
1366;SDS011;16877;48.810;9.282;2023-05-17T03:14:48;7.07;;;1.57;;
1366;SDS011;16877;48.810;9.282;2023-05-17T03:17:16;2.50;;;1.30;;
1366;SDS011;16877;48.810;9.282;2023-05-17T03:19:43;3.83;;;1.90;;
1366;SDS011;16877;48.810;9.282;2023-05-17T03:22:27;2.73;;;1.60;;
1366;SDS011;16877;48.810;9.282;2023-05-17T03:25:09;2.90;;;1.30;;
1366;SDS011;16877;48.810;9.282;2023-05-17T03:27:40;3.23;;;1.40;;
1366;SDS011;16877;48.810;9.282;2023-05-17T03:30:09;4.20;;;1.50;;
1366;SDS011;16877;48.810;9.282;2023-05-17T03:32:37;3.30;;;1.30;;
1366;SDS011;16877;48.810;9.282;2023-05-17T03:35:06;3.07;;;1.60;;
1366;SDS011;16877;48.810;9.282;2023-05-17T03:37:36;3.00;;;1.30;;
1366;SDS011;16877;48.810;9.282;2023-05-17T03:40:03;3.27;;;1.70;;
1366;SDS011;16877;48.810;9.282;2023-05-17T03:42:36;5.43;;;1.50;;
1366;SDS011;16877;48.810;9.282;2023-05-17T03:45:03;3.10;;;1.40;;
1366;SDS011;16877;48.810;9.282;2023-05-17T03:47:31;2.90;;;1.40;;
1366;SDS011;16877;48.810;9.282;2023-05-17T03:49:58;3.23;;;1.50;;
1366;SDS011;16877;48.810;9.282;2023-05-17T03:52:26;2.70;;;1.53;;
1366;SDS011;16877;48.810;9.282;2023-05-17T03:55:10;3.47;;;1.93;;
1366;SDS011;16877;48.810;9.282;2023-05-17T03:57:37;3.70;;;2.00;;
1366;SDS011;16877;48.810;9.282;2023-05-17T04:00:05;3.60;;;1.97;;
1366;SDS011;16877;48.810;9.282;2023-05-17T04:02:35;4.00;;;1.90;;
1366;SDS011;16877;48.810;9.282;2023-05-17T04:05:10;5.27;;;1.87;;
1366;SDS011;16877;48.810;9.282;2023-05-17T04:07:37;4.70;;;2.33;;
1366;SDS011;16877;48.810;9.282;2023-05-17T04:10:05;3.57;;;1.80;;
1366;SDS011;16877;48.810;9.282;2023-05-17T04:12:34;6.93;;;2.10;;
1366;SDS011;16877;48.810;9.282;2023-05-17T04:15:01;4.00;;;1.67;;
1366;SDS011;16877;48.810;9.282;2023-05-17T04:17:30;4.30;;;1.77;;
1366;SDS011;16877;48.810;9.282;2023-05-17T04:19:58;3.43;;;1.80;;
1366;SDS011;16877;48.810;9.282;2023-05-17T04:22:25;5.23;;;2.27;;
1366;SDS011;16877;48.810;9.282;2023-05-17T04:24:53;3.27;;;1.87;;
1366;SDS011;16877;48.810;9.282;2023-05-17T04:27:20;3.17;;;1.80;;
1366;SDS011;16877;48.810;9.282;2023-05-17T04:29:49;3.23;;;1.97;;
1366;SDS011;16877;48.810;9.282;2023-05-17T04:32:16;2.40;;;1.27;;
1366;SDS011;16877;48.810;9.282;2023-05-17T04:34:45;3.53;;;1.43;;
1366;SDS011;16877;48.810;9.282;2023-05-17T04:37:13;3.20;;;1.70;;
1366;SDS011;16877;48.810;9.282;2023-05-17T04:39:41;3.10;;;1.50;;
1366;SDS011;16877;48.810;9.282;2023-05-17T04:42:08;3.23;;;1.77;;
1366;SDS011;16877;48.810;9.282;2023-05-17T04:44:42;5.53;;;1.87;;
1366;SDS011;16877;48.810;9.282;2023-05-17T04:47:17;5.00;;;1.90;;
1366;SDS011;16877;48.810;9.282;2023-05-17T04:49:45;4.13;;;1.50;;
1366;SDS011;16877;48.810;9.282;2023-05-17T04:52:21;4.57;;;2.00;;
1366;SDS011;16877;48.810;9.282;2023-05-17T04:54:49;4.00;;;1.77;;
1366;SDS011;16877;48.810;9.282;2023-05-17T04:57:20;3.70;;;1.53;;
1366;SDS011;16877;48.810;9.282;2023-05-17T05:00:04;4.17;;;1.70;;
1366;SDS011;16877;48.810;9.282;2023-05-17T05:02:37;2.83;;;1.73;;
1366;SDS011;16877;48.810;9.282;2023-05-17T05:05:14;3.53;;;1.70;;
1366;SDS011;16877;48.810;9.282;2023-05-17T05:07:49;2.63;;;1.47;;
1366;SDS011;16877;48.810;9.282;2023-05-17T05:10:16;6.43;;;2.07;;
1366;SDS011;16877;48.810;9.282;2023-05-17T05:12:46;2.67;;;1.40;;
1366;SDS011;16877;48.810;9.282;2023-05-17T05:15:28;3.77;;;1.70;;
1366;SDS011;16877;48.810;9.282;2023-05-17T05:17:59;5.90;;;2.30;;
1366;SDS011;16877;48.810;9.282;2023-05-17T05:20:31;2.87;;;1.53;;
1366;SDS011;16877;48.810;9.282;2023-05-17T05:22:59;3.30;;;1.77;;
1366;SDS011;16877;48.810;9.282;2023-05-17T05:25:42;3.10;;;1.77;;
1366;SDS011;16877;48.810;9.282;2023-05-17T05:28:17;3.20;;;1.87;;
1366;SDS011;16877;48.810;9.282;2023-05-17T05:30:46;3.80;;;1.80;;
1366;SDS011;16877;48.810;9.282;2023-05-17T05:36:20;4.53;;;2.07;;
1366;SDS011;16877;48.810;9.282;2023-05-17T05:38:48;4.40;;;2.40;;
1366;SDS011;16877;48.810;9.282;2023-05-17T05:41:23;4.00;;;1.77;;
1366;SDS011;16877;48.810;9.282;2023-05-17T05:43:52;4.93;;;1.63;;
1366;SDS011;16877;48.810;9.282;2023-05-17T05:46:36;3.93;;;1.80;;
1366;SDS011;16877;48.810;9.282;2023-05-17T05:49:10;4.50;;;1.97;;
1366;SDS011;16877;48.810;9.282;2023-05-17T05:51:38;4.20;;;2.13;;
1366;SDS011;16877;48.810;9.282;2023-05-17T05:54:05;3.67;;;2.10;;
1366;SDS011;16877;48.810;9.282;2023-05-17T05:56:34;5.77;;;2.20;;
1366;SDS011;16877;48.810;9.282;2023-05-17T05:59:06;4.30;;;1.90;;
1366;SDS011;16877;48.810;9.282;2023-05-17T06:01:43;2.80;;;1.40;;
1366;SDS011;16877;48.810;9.282;2023-05-17T06:04:15;3.17;;;1.50;;
1366;SDS011;16877;48.810;9.282;2023-05-17T06:06:52;4.53;;;2.00;;
1366;SDS011;16877;48.810;9.282;2023-05-17T06:09:20;2.40;;;1.20;;
1366;SDS011;16877;48.810;9.282;2023-05-17T06:11:51;4.97;;;1.97;;
1366;SDS011;16877;48.810;9.282;2023-05-17T06:14:21;3.20;;;1.57;;
1366;SDS011;16877;48.810;9.282;2023-05-17T06:16:54;3.73;;;1.70;;
1366;SDS011;16877;48.810;9.282;2023-05-17T06:19:23;3.03;;;1.63;;
1366;SDS011;16877;48.810;9.282;2023-05-17T06:21:51;4.63;;;1.40;;
1366;SDS011;16877;48.810;9.282;2023-05-17T06:24:31;4.60;;;1.60;;
1366;SDS011;16877;48.810;9.282;2023-05-17T06:26:59;4.13;;;1.60;;
1366;SDS011;16877;48.810;9.282;2023-05-17T06:29:36;3.80;;;1.40;;
1366;SDS011;16877;48.810;9.282;2023-05-17T06:34:51;4.90;;;1.67;;
1366;SDS011;16877;48.810;9.282;2023-05-17T06:37:23;3.57;;;1.30;;
1366;SDS011;16877;48.810;9.282;2023-05-17T06:39:50;3.30;;;1.40;;
1366;SDS011;16877;48.810;9.282;2023-05-17T06:42:19;2.60;;;1.37;;
1366;SDS011;16877;48.810;9.282;2023-05-17T06:44:50;5.50;;;1.60;;
1366;SDS011;16877;48.810;9.282;2023-05-17T06:47:23;3.77;;;1.67;;
1366;SDS011;16877;48.810;9.282;2023-05-17T06:49:53;5.87;;;2.07;;
1366;SDS011;16877;48.810;9.282;2023-05-17T06:52:21;3.80;;;1.30;;
1366;SDS011;16877;48.810;9.282;2023-05-17T06:54:49;4.43;;;1.60;;
1366;SDS011;16877;48.810;9.282;2023-05-17T06:57:21;4.03;;;2.27;;
1366;SDS011;16877;48.810;9.282;2023-05-17T06:59:48;3.47;;;1.50;;
1366;SDS011;16877;48.810;9.282;2023-05-17T07:02:27;4.50;;;1.67;;
1366;SDS011;16877;48.810;9.282;2023-05-17T07:04:56;4.30;;;1.70;;
1366;SDS011;16877;48.810;9.282;2023-05-17T07:07:39;3.70;;;1.83;;
1366;SDS011;16877;48.810;9.282;2023-05-17T07:10:06;4.60;;;1.80;;
1366;SDS011;16877;48.810;9.282;2023-05-17T07:12:37;4.20;;;2.00;;
1366;SDS011;16877;48.810;9.282;2023-05-17T07:15:19;4.87;;;2.03;;
1366;SDS011;16877;48.810;9.282;2023-05-17T07:17:57;4.20;;;1.90;;
1366;SDS011;16877;48.810;9.282;2023-05-17T07:20:41;3.73;;;1.53;;
1366;SDS011;16877;48.810;9.282;2023-05-17T07:23:08;4.40;;;1.70;;
1366;SDS011;16877;48.810;9.282;2023-05-17T07:25:36;3.07;;;1.73;;
1366;SDS011;16877;48.810;9.282;2023-05-17T07:28:07;5.07;;;2.20;;
1366;SDS011;16877;48.810;9.282;2023-05-17T07:30:35;3.60;;;1.67;;
1366;SDS011;16877;48.810;9.282;2023-05-17T07:33:03;4.80;;;2.23;;
1366;SDS011;16877;48.810;9.282;2023-05-17T07:35:47;4.50;;;2.10;;
1366;SDS011;16877;48.810;9.282;2023-05-17T07:38:18;4.10;;;2.37;;
1366;SDS011;16877;48.810;9.282;2023-05-17T07:40:49;3.27;;;1.50;;
1366;SDS011;16877;48.810;9.282;2023-05-17T07:43:16;3.97;;;2.17;;
1366;SDS011;16877;48.810;9.282;2023-05-17T07:45:58;6.17;;;2.53;;
1366;SDS011;16877;48.810;9.282;2023-05-17T07:48:34;3.10;;;1.70;;
1366;SDS011;16877;48.810;9.282;2023-05-17T07:51:03;4.73;;;2.00;;
1366;SDS011;16877;48.810;9.282;2023-05-17T07:53:31;4.60;;;2.10;;
1366;SDS011;16877;48.810;9.282;2023-05-17T07:55:58;5.13;;;2.60;;
1366;SDS011;16877;48.810;9.282;2023-05-17T07:58:41;4.57;;;2.43;;
1366;SDS011;16877;48.810;9.282;2023-05-17T08:01:09;4.57;;;2.20;;
1366;SDS011;16877;48.810;9.282;2023-05-17T08:03:37;3.37;;;2.07;;
1366;SDS011;16877;48.810;9.282;2023-05-17T08:06:32;5.20;;;2.20;;
1366;SDS011;16877;48.810;9.282;2023-05-17T08:09:00;4.07;;;2.77;;
1366;SDS011;16877;48.810;9.282;2023-05-17T08:11:30;4.77;;;2.80;;
1366;SDS011;16877;48.810;9.282;2023-05-17T08:13:59;3.77;;;2.07;;
1366;SDS011;16877;48.810;9.282;2023-05-17T08:16:26;3.77;;;2.43;;
1366;SDS011;16877;48.810;9.282;2023-05-17T08:19:01;5.87;;;2.50;;
1366;SDS011;16877;48.810;9.282;2023-05-17T08:21:32;4.47;;;3.00;;
1366;SDS011;16877;48.810;9.282;2023-05-17T08:24:04;6.57;;;2.50;;
1366;SDS011;16877;48.810;9.282;2023-05-17T08:26:32;5.30;;;2.70;;
1366;SDS011;16877;48.810;9.282;2023-05-17T08:29:01;4.60;;;2.47;;
1366;SDS011;16877;48.810;9.282;2023-05-17T08:31:29;3.90;;;2.10;;
1366;SDS011;16877;48.810;9.282;2023-05-17T08:33:56;3.70;;;2.40;;
1366;SDS011;16877;48.810;9.282;2023-05-17T08:36:24;5.30;;;2.90;;
1366;SDS011;16877;48.810;9.282;2023-05-17T08:38:53;6.30;;;2.70;;
1366;SDS011;16877;48.810;9.282;2023-05-17T08:41:21;4.57;;;2.50;;
1366;SDS011;16877;48.810;9.282;2023-05-17T08:43:49;4.07;;;2.60;;
1366;SDS011;16877;48.810;9.282;2023-05-17T08:46:18;6.43;;;3.30;;
1366;SDS011;16877;48.810;9.282;2023-05-17T08:48:45;4.80;;;2.43;;
1366;SDS011;16877;48.810;9.282;2023-05-17T08:51:24;3.97;;;2.63;;
1366;SDS011;16877;48.810;9.282;2023-05-17T08:53:54;5.27;;;2.67;;
1366;SDS011;16877;48.810;9.282;2023-05-17T08:56:37;5.97;;;2.70;;
1366;SDS011;16877;48.810;9.282;2023-05-17T08:59:09;5.20;;;3.27;;
1366;SDS011;16877;48.810;9.282;2023-05-17T09:01:52;3.47;;;2.30;;
1366;SDS011;16877;48.810;9.282;2023-05-17T09:04:34;4.37;;;2.47;;
1366;SDS011;16877;48.810;9.282;2023-05-17T09:07:07;4.83;;;2.43;;
1366;SDS011;16877;48.810;9.282;2023-05-17T09:09:35;4.07;;;2.23;;
1366;SDS011;16877;48.810;9.282;2023-05-17T09:12:03;3.83;;;2.60;;
1366;SDS011;16877;48.810;9.282;2023-05-17T09:14:31;5.50;;;3.20;;
1366;SDS011;16877;48.810;9.282;2023-05-17T09:17:00;6.77;;;3.20;;
1366;SDS011;16877;48.810;9.282;2023-05-17T09:19:27;4.17;;;2.73;;
1366;SDS011;16877;48.810;9.282;2023-05-17T09:21:58;4.07;;;2.47;;
1366;SDS011;16877;48.810;9.282;2023-05-17T09:24:26;4.50;;;2.83;;
1366;SDS011;16877;48.810;9.282;2023-05-17T09:27:01;5.27;;;3.27;;
1366;SDS011;16877;48.810;9.282;2023-05-17T09:29:29;4.53;;;2.87;;
1366;SDS011;16877;48.810;9.282;2023-05-17T09:32:06;5.60;;;3.27;;
1366;SDS011;16877;48.810;9.282;2023-05-17T09:34:38;3.90;;;2.47;;
1366;SDS011;16877;48.810;9.282;2023-05-17T09:37:10;5.57;;;2.60;;
1366;SDS011;16877;48.810;9.282;2023-05-17T09:39:38;5.10;;;2.70;;
1366;SDS011;16877;48.810;9.282;2023-05-17T09:42:07;5.00;;;2.70;;
1366;SDS011;16877;48.810;9.282;2023-05-17T09:44:47;4.80;;;3.13;;
1366;SDS011;16877;48.810;9.282;2023-05-17T09:47:22;4.13;;;2.70;;
1366;SDS011;16877;48.810;9.282;2023-05-17T09:49:50;4.03;;;2.87;;
1366;SDS011;16877;48.810;9.282;2023-05-17T09:52:18;3.40;;;2.13;;
1366;SDS011;16877;48.810;9.282;2023-05-17T09:54:52;4.20;;;2.97;;
1366;SDS011;16877;48.810;9.282;2023-05-17T09:57:23;4.70;;;2.77;;
1366;SDS011;16877;48.810;9.282;2023-05-17T10:00:00;5.87;;;2.80;;
1366;SDS011;16877;48.810;9.282;2023-05-17T10:02:29;4.00;;;2.60;;
1366;SDS011;16877;48.810;9.282;2023-05-17T10:05:02;3.90;;;3.03;;
1366;SDS011;16877;48.810;9.282;2023-05-17T10:07:30;3.83;;;2.67;;
1366;SDS011;16877;48.810;9.282;2023-05-17T10:10:00;4.47;;;2.57;;
1366;SDS011;16877;48.810;9.282;2023-05-17T10:12:29;5.20;;;3.40;;
1366;SDS011;16877;48.810;9.282;2023-05-17T10:14:59;3.70;;;2.57;;
1366;SDS011;16877;48.810;9.282;2023-05-17T10:17:27;5.40;;;2.87;;
1366;SDS011;16877;48.810;9.282;2023-05-17T10:19:56;7.20;;;3.07;;
1366;SDS011;16877;48.810;9.282;2023-05-17T10:22:23;4.90;;;2.70;;
1366;SDS011;16877;48.810;9.282;2023-05-17T10:24:53;4.33;;;3.13;;
1366;SDS011;16877;48.810;9.282;2023-05-17T10:27:22;6.23;;;3.20;;
1366;SDS011;16877;48.810;9.282;2023-05-17T10:29:52;4.87;;;3.30;;
1366;SDS011;16877;48.810;9.282;2023-05-17T10:32:20;4.30;;;3.00;;
1366;SDS011;16877;48.810;9.282;2023-05-17T10:34:51;4.40;;;3.50;;
1366;SDS011;16877;48.810;9.282;2023-05-17T10:37:20;4.93;;;3.23;;
1366;SDS011;16877;48.810;9.282;2023-05-17T10:39:48;4.60;;;3.23;;
1366;SDS011;16877;48.810;9.282;2023-05-17T10:42:17;5.07;;;3.60;;
1366;SDS011;16877;48.810;9.282;2023-05-17T10:44:47;6.97;;;3.10;;
1366;SDS011;16877;48.810;9.282;2023-05-17T10:47:17;4.27;;;3.27;;
1366;SDS011;16877;48.810;9.282;2023-05-17T10:49:45;7.10;;;3.20;;
1366;SDS011;16877;48.810;9.282;2023-05-17T10:52:17;5.43;;;3.50;;
1366;SDS011;16877;48.810;9.282;2023-05-17T10:54:48;5.27;;;3.17;;
1366;SDS011;16877;48.810;9.282;2023-05-17T10:57:18;4.20;;;2.83;;
1366;SDS011;16877;48.810;9.282;2023-05-17T10:59:57;5.80;;;3.13;;
1366;SDS011;16877;48.810;9.282;2023-05-17T11:02:29;4.93;;;3.10;;
1366;SDS011;16877;48.810;9.282;2023-05-17T11:04:58;5.80;;;3.60;;
1366;SDS011;16877;48.810;9.282;2023-05-17T11:07:26;6.27;;;3.80;;
1366;SDS011;16877;48.810;9.282;2023-05-17T11:10:01;4.20;;;2.63;;
1366;SDS011;16877;48.810;9.282;2023-05-17T11:12:34;3.73;;;2.40;;
1366;SDS011;16877;48.810;9.282;2023-05-17T11:15:11;3.50;;;2.50;;
1366;SDS011;16877;48.810;9.282;2023-05-17T11:17:47;5.83;;;3.37;;
1366;SDS011;16877;48.810;9.282;2023-05-17T11:20:33;3.93;;;2.80;;
1366;SDS011;16877;48.810;9.282;2023-05-17T11:23:01;4.30;;;2.27;;
1366;SDS011;16877;48.810;9.282;2023-05-17T11:25:29;5.67;;;3.03;;
1366;SDS011;16877;48.810;9.282;2023-05-17T11:28:00;4.80;;;2.70;;
1366;SDS011;16877;48.810;9.282;2023-05-17T11:30:33;4.93;;;2.87;;
1366;SDS011;16877;48.810;9.282;2023-05-17T11:33:07;3.63;;;2.70;;
1366;SDS011;16877;48.810;9.282;2023-05-17T11:35:35;4.33;;;2.67;;
1366;SDS011;16877;48.810;9.282;2023-05-17T11:38:13;4.47;;;3.27;;
1366;SDS011;16877;48.810;9.282;2023-05-17T11:40:42;3.80;;;2.47;;
1366;SDS011;16877;48.810;9.282;2023-05-17T11:43:24;4.13;;;2.80;;
1366;SDS011;16877;48.810;9.282;2023-05-17T11:45:56;5.50;;;3.17;;
1366;SDS011;16877;48.810;9.282;2023-05-17T11:48:28;4.23;;;2.73;;
1366;SDS011;16877;48.810;9.282;2023-05-17T11:51:11;6.30;;;2.93;;
1366;SDS011;16877;48.810;9.282;2023-05-17T11:53:40;4.87;;;3.40;;
1366;SDS011;16877;48.810;9.282;2023-05-17T11:56:08;5.27;;;3.10;;
1366;SDS011;16877;48.810;9.282;2023-05-17T11:58:43;4.37;;;2.90;;
1366;SDS011;16877;48.810;9.282;2023-05-17T12:01:18;4.77;;;2.53;;
1366;SDS011;16877;48.810;9.282;2023-05-17T12:03:54;4.70;;;2.83;;
1366;SDS011;16877;48.810;9.282;2023-05-17T12:06:23;5.10;;;3.00;;
1366;SDS011;16877;48.810;9.282;2023-05-17T12:08:52;3.37;;;2.40;;
1366;SDS011;16877;48.810;9.282;2023-05-17T12:11:20;6.73;;;3.10;;
1366;SDS011;16877;48.810;9.282;2023-05-17T12:13:48;3.83;;;3.07;;
1366;SDS011;16877;48.810;9.282;2023-05-17T12:16:16;6.33;;;2.93;;
1366;SDS011;16877;48.810;9.282;2023-05-17T12:18:49;3.50;;;2.57;;
1366;SDS011;16877;48.810;9.282;2023-05-17T12:21:17;2.90;;;1.97;;
1366;SDS011;16877;48.810;9.282;2023-05-17T12:23:46;3.93;;;3.00;;
1366;SDS011;16877;48.810;9.282;2023-05-17T12:26:17;4.03;;;2.70;;
1366;SDS011;16877;48.810;9.282;2023-05-17T12:29:00;6.50;;;2.93;;
1366;SDS011;16877;48.810;9.282;2023-05-17T12:31:28;4.67;;;3.00;;
1366;SDS011;16877;48.810;9.282;2023-05-17T12:33:59;3.83;;;2.70;;
1366;SDS011;16877;48.810;9.282;2023-05-17T12:36:28;4.70;;;3.27;;
1366;SDS011;16877;48.810;9.282;2023-05-17T12:38:56;3.17;;;2.40;;
1366;SDS011;16877;48.810;9.282;2023-05-17T12:41:23;6.13;;;3.30;;
1366;SDS011;16877;48.810;9.282;2023-05-17T12:43:51;4.07;;;2.60;;
1366;SDS011;16877;48.810;9.282;2023-05-17T12:46:21;4.37;;;2.80;;
1366;SDS011;16877;48.810;9.282;2023-05-17T12:48:49;6.50;;;3.50;;
1366;SDS011;16877;48.810;9.282;2023-05-17T12:51:19;4.70;;;2.93;;
1366;SDS011;16877;48.810;9.282;2023-05-17T12:53:51;4.97;;;3.37;;
1366;SDS011;16877;48.810;9.282;2023-05-17T12:56:20;6.07;;;2.90;;
1366;SDS011;16877;48.810;9.282;2023-05-17T12:59:04;8.30;;;3.13;;
1366;SDS011;16877;48.810;9.282;2023-05-17T13:01:33;4.10;;;2.80;;
1366;SDS011;16877;48.810;9.282;2023-05-17T13:04:01;3.50;;;2.17;;
1366;SDS011;16877;48.810;9.282;2023-05-17T13:06:31;4.90;;;2.63;;
1366;SDS011;16877;48.810;9.282;2023-05-17T13:09:16;4.33;;;2.70;;
1366;SDS011;16877;48.810;9.282;2023-05-17T13:11:48;6.70;;;2.27;;
1366;SDS011;16877;48.810;9.282;2023-05-17T13:17:03;4.83;;;2.43;;
1366;SDS011;16877;48.810;9.282;2023-05-17T13:19:32;3.70;;;1.90;;
1366;SDS011;16877;48.810;9.282;2023-05-17T13:22:02;5.87;;;2.37;;
1366;SDS011;16877;48.810;9.282;2023-05-17T13:24:30;2.97;;;1.80;;
1366;SDS011;16877;48.810;9.282;2023-05-17T13:26:59;5.33;;;2.20;;
1366;SDS011;16877;48.810;9.282;2023-05-17T13:29:26;4.13;;;1.60;;
1366;SDS011;16877;48.810;9.282;2023-05-17T13:31:54;3.97;;;2.20;;
1366;SDS011;16877;48.810;9.282;2023-05-17T13:34:22;3.67;;;2.30;;
1366;SDS011;16877;48.810;9.282;2023-05-17T13:36:49;5.00;;;2.20;;
1366;SDS011;16877;48.810;9.282;2023-05-17T13:39:19;7.97;;;2.40;;
1366;SDS011;16877;48.810;9.282;2023-05-17T13:42:02;3.27;;;2.10;;
1366;SDS011;16877;48.810;9.282;2023-05-17T13:44:30;4.80;;;2.33;;
1366;SDS011;16877;48.810;9.282;2023-05-17T13:46:58;3.33;;;2.07;;
1366;SDS011;16877;48.810;9.282;2023-05-17T13:49:25;4.50;;;2.33;;
1366;SDS011;16877;48.810;9.282;2023-05-17T13:51:53;4.63;;;2.50;;
1366;SDS011;16877;48.810;9.282;2023-05-17T13:54:23;5.33;;;2.80;;
1366;SDS011;16877;48.810;9.282;2023-05-17T13:56:51;5.90;;;2.77;;
1366;SDS011;16877;48.810;9.282;2023-05-17T13:59:19;4.13;;;2.50;;
1366;SDS011;16877;48.810;9.282;2023-05-17T14:02:02;4.87;;;2.73;;
1366;SDS011;16877;48.810;9.282;2023-05-17T14:04:30;4.17;;;2.40;;
1366;SDS011;16877;48.810;9.282;2023-05-17T14:06:57;4.70;;;2.70;;
1366;SDS011;16877;48.810;9.282;2023-05-17T14:09:27;8.07;;;4.50;;
1366;SDS011;16877;48.810;9.282;2023-05-17T14:11:57;8.03;;;4.57;;
1366;SDS011;16877;48.810;9.282;2023-05-17T14:14:27;9.30;;;5.13;;
1366;SDS011;16877;48.810;9.282;2023-05-17T14:17:10;10.47;;;5.83;;
1366;SDS011;16877;48.810;9.282;2023-05-17T14:19:53;10.40;;;5.23;;
1366;SDS011;16877;48.810;9.282;2023-05-17T14:22:21;11.43;;;5.00;;
1366;SDS011;16877;48.810;9.282;2023-05-17T14:24:52;7.90;;;5.67;;
1366;SDS011;16877;48.810;9.282;2023-05-17T14:27:19;8.33;;;4.57;;
1366;SDS011;16877;48.810;9.282;2023-05-17T14:29:46;8.70;;;4.63;;
1366;SDS011;16877;48.810;9.282;2023-05-17T14:32:14;9.40;;;5.23;;
1366;SDS011;16877;48.810;9.282;2023-05-17T14:34:41;9.53;;;4.80;;
1366;SDS011;16877;48.810;9.282;2023-05-17T14:37:09;6.43;;;4.30;;
1366;SDS011;16877;48.810;9.282;2023-05-17T14:39:38;11.27;;;4.90;;
1366;SDS011;16877;48.810;9.282;2023-05-17T14:42:17;9.50;;;4.67;;
1366;SDS011;16877;48.810;9.282;2023-05-17T14:44:44;7.90;;;4.07;;
1366;SDS011;16877;48.810;9.282;2023-05-17T14:47:26;7.30;;;4.07;;
1366;SDS011;16877;48.810;9.282;2023-05-17T14:49:54;6.80;;;3.93;;
1366;SDS011;16877;48.810;9.282;2023-05-17T14:52:22;7.80;;;3.87;;
1366;SDS011;16877;48.810;9.282;2023-05-17T14:54:51;7.50;;;4.30;;
1366;SDS011;16877;48.810;9.282;2023-05-17T14:57:20;8.43;;;4.03;;
1366;SDS011;16877;48.810;9.282;2023-05-17T15:00:02;7.87;;;3.70;;
1366;SDS011;16877;48.810;9.282;2023-05-17T15:02:34;6.93;;;4.00;;
1366;SDS011;16877;48.810;9.282;2023-05-17T15:05:01;9.67;;;4.23;;
1366;SDS011;16877;48.810;9.282;2023-05-17T15:07:29;6.73;;;3.60;;
1366;SDS011;16877;48.810;9.282;2023-05-17T15:09:57;7.47;;;3.27;;
1366;SDS011;16877;48.810;9.282;2023-05-17T15:12:38;7.07;;;3.97;;
1366;SDS011;16877;48.810;9.282;2023-05-17T15:15:06;6.90;;;3.57;;
1366;SDS011;16877;48.810;9.282;2023-05-17T15:17:37;8.80;;;3.93;;
1366;SDS011;16877;48.810;9.282;2023-05-17T15:20:06;6.33;;;3.67;;
1366;SDS011;16877;48.810;9.282;2023-05-17T15:22:35;12.27;;;4.00;;
1366;SDS011;16877;48.810;9.282;2023-05-17T15:25:02;5.93;;;3.40;;
1366;SDS011;16877;48.810;9.282;2023-05-17T15:27:29;8.37;;;4.03;;
1366;SDS011;16877;48.810;9.282;2023-05-17T15:29:59;4.47;;;3.03;;
1366;SDS011;16877;48.810;9.282;2023-05-17T15:32:28;5.40;;;3.20;;